createdAt,value
2023-04-27T00:00:23.057Z,2.10
2023-04-27T00:02:51.008Z,2.07
2023-04-27T00:05:19.156Z,2.20
2023-04-27T00:51:43.137Z,2.30
2023-04-27T00:54:12.189Z,2.17
2023-04-27T00:56:39.910Z,2.20
2023-04-27T00:59:07.602Z,2.13
2023-04-27T01:01:35.345Z,2.40
2023-04-27T01:04:03.366Z,2.27
2023-04-27T01:06:31.240Z,2.10
2023-04-27T01:08:58.829Z,2.20
2023-04-27T01:11:26.753Z,2.13
2023-04-27T01:13:55.142Z,2.20
2023-04-27T01:16:22.972Z,2.23
2023-04-27T01:18:50.862Z,2.23
2023-04-27T01:21:18.450Z,2.20
2023-04-27T01:23:47.100Z,2.00
2023-04-27T01:26:15.018Z,1.90
2023-04-27T01:28:45.225Z,2.07
2023-04-27T01:31:13.137Z,2.17
2023-04-27T01:33:41.805Z,2.10
2023-04-27T01:36:09.996Z,2.00
2023-04-27T01:38:37.664Z,2.20
2023-04-27T01:41:06.137Z,2.00
2023-04-27T01:43:33.895Z,2.40
2023-04-27T01:46:09.255Z,2.00
2023-04-27T01:48:37.687Z,2.20
2023-04-27T01:51:06.101Z,2.23
2023-04-27T01:53:34.174Z,2.10
2023-04-27T01:56:01.822Z,2.30
2023-04-27T01:58:29.336Z,2.20
2023-04-27T02:00:56.901Z,2.17
2023-04-27T02:03:24.650Z,2.07
2023-04-27T02:05:52.479Z,1.90
2023-04-27T02:08:20.116Z,2.30
2023-04-27T02:10:47.733Z,2.07
2023-04-27T02:13:15.281Z,2.00
2023-04-27T02:15:43.133Z,2.20
2023-04-27T02:18:10.814Z,2.40
2023-04-27T02:20:38.405Z,2.00
2023-04-27T02:23:06.003Z,2.03
2023-04-27T02:25:36.074Z,2.27
2023-04-27T02:28:03.739Z,2.00
2023-04-27T02:30:31.866Z,2.20
2023-04-27T02:33:00.574Z,2.20
2023-04-27T02:35:28.482Z,2.23
2023-04-27T02:37:56.008Z,2.17
2023-04-27T02:40:23.545Z,2.10
2023-04-27T02:42:51.169Z,2.17
2023-04-27T02:45:18.798Z,2.30
2023-04-27T02:47:46.392Z,1.97
2023-04-27T02:50:13.993Z,2.10
2023-04-27T02:52:41.594Z,2.20
2023-04-27T02:55:09.410Z,1.90
2023-04-27T02:57:36.880Z,2.20
2023-04-27T03:00:05.520Z,2.40
2023-04-27T03:02:33.391Z,2.20
2023-04-27T03:05:01.044Z,2.47
2023-04-27T03:07:28.566Z,2.50
2023-04-27T03:09:56.100Z,2.50
2023-04-27T03:12:23.824Z,2.37
2023-04-27T03:14:51.341Z,2.67
2023-04-27T03:17:18.906Z,2.27
2023-04-27T03:19:48.393Z,2.33
2023-04-27T03:22:16.042Z,2.43
2023-04-27T03:24:43.709Z,2.23
2023-04-27T03:27:11.386Z,2.40
2023-04-27T03:29:39.177Z,2.20
2023-04-27T03:32:08.258Z,2.40
2023-04-27T03:34:35.970Z,2.70
2023-04-27T03:37:03.556Z,2.70
2023-04-27T03:39:31.089Z,2.50
2023-04-27T03:41:58.680Z,2.50
2023-04-27T03:44:26.254Z,2.30
2023-04-27T03:46:53.806Z,2.10
2023-04-27T03:49:22.360Z,2.80
2023-04-27T03:51:50.022Z,3.20
2023-04-27T03:54:17.727Z,4.03
2023-04-27T03:56:45.264Z,4.97
2023-04-27T03:59:13.332Z,5.30
2023-04-27T04:01:42.078Z,4.13
2023-04-27T04:04:09.920Z,3.90
2023-04-27T04:06:37.534Z,3.07
2023-04-27T04:09:05.121Z,4.87
2023-04-27T04:11:32.669Z,4.20
2023-04-27T04:14:00.370Z,3.80
2023-04-27T04:16:28.076Z,3.67
2023-04-27T04:18:55.716Z,3.83
2023-04-27T04:21:23.240Z,3.70
2023-04-27T04:23:50.788Z,3.97
2023-04-27T04:26:18.061Z,3.93
2023-04-27T04:28:45.222Z,4.40
2023-04-27T04:31:12.489Z,4.50
2023-04-27T04:33:39.677Z,4.13
2023-04-27T04:36:07.318Z,4.23
2023-04-27T04:38:34.636Z,6.67
2023-04-27T04:41:01.845Z,3.70
2023-04-27T04:43:29.133Z,4.67
2023-04-27T04:45:56.344Z,4.50
2023-04-27T04:48:23.533Z,4.57
2023-04-27T04:50:50.719Z,27.17
2023-04-27T04:53:17.908Z,9.27
2023-04-27T04:55:45.205Z,5.53
2023-04-27T04:58:12.561Z,18.20
2023-04-27T05:00:39.785Z,9.90
2023-04-27T05:03:07.010Z,6.50
2023-04-27T05:05:34.198Z,4.83
2023-04-27T05:08:01.396Z,4.90
2023-04-27T05:10:28.836Z,4.33
2023-04-27T05:12:56.089Z,5.27
2023-04-27T05:15:23.463Z,5.13
2023-04-27T05:17:50.713Z,5.00
2023-04-27T05:20:18.184Z,4.53
2023-04-27T05:22:45.509Z,4.90
2023-04-27T05:25:12.787Z,5.10
2023-04-27T05:27:40.127Z,5.23
2023-04-27T05:30:08.554Z,5.93
2023-04-27T05:32:35.927Z,6.47
2023-04-27T05:35:04.219Z,5.07
2023-04-27T05:37:31.643Z,5.70
2023-04-27T05:39:58.976Z,5.57
2023-04-27T05:42:26.187Z,6.10
2023-04-27T05:44:53.675Z,5.60
2023-04-27T05:47:21.257Z,5.80
2023-04-27T05:49:52.756Z,5.33
2023-04-27T05:52:21.156Z,5.50
2023-04-27T05:54:49.762Z,7.43
2023-04-27T05:57:17.618Z,9.70
2023-04-27T05:59:45.148Z,8.73
2023-04-27T06:02:12.823Z,10.13
2023-04-27T06:04:40.215Z,12.57
2023-04-27T06:07:16.206Z,6.53
2023-04-27T06:09:43.589Z,6.37
2023-04-27T06:12:10.954Z,5.37
2023-04-27T06:14:38.128Z,8.07
2023-04-27T06:17:05.778Z,5.27
2023-04-27T06:19:33.321Z,3.10
2023-04-27T06:22:00.546Z,2.80
2023-04-27T06:24:27.824Z,3.10
2023-04-27T06:26:55.035Z,3.17
2023-04-27T06:29:22.474Z,3.23
2023-04-27T06:31:49.781Z,3.73
2023-04-27T06:34:16.934Z,3.00
2023-04-27T06:36:44.083Z,3.43
2023-04-27T06:39:11.559Z,3.17
2023-04-27T06:41:38.816Z,3.30
2023-04-27T06:44:06.141Z,3.20
2023-04-27T06:46:33.998Z,3.17
2023-04-27T06:49:01.284Z,4.17
2023-04-27T06:51:28.471Z,3.60
2023-04-27T06:53:55.819Z,3.90
2023-04-27T06:56:23.048Z,4.10
2023-04-27T06:58:50.260Z,3.47
2023-04-27T07:01:17.527Z,3.60
2023-04-27T07:03:44.809Z,3.40
2023-04-27T07:06:12.011Z,3.63
2023-04-27T07:08:39.473Z,3.73
2023-04-27T07:11:06.667Z,7.63
2023-04-27T07:13:33.826Z,4.07
2023-04-27T07:16:01.304Z,3.80
2023-04-27T07:18:28.836Z,3.50
2023-04-27T07:20:56.285Z,4.00
2023-04-27T07:23:24.302Z,3.80
2023-04-27T07:25:51.886Z,4.23
2023-04-27T07:28:19.147Z,4.10
2023-04-27T07:30:46.423Z,4.43
2023-04-27T07:33:13.898Z,3.60
2023-04-27T07:35:41.147Z,4.40
2023-04-27T07:38:08.549Z,4.30
2023-04-27T07:40:35.935Z,4.27
2023-04-27T07:43:03.161Z,5.00
2023-04-27T07:45:30.996Z,3.80
2023-04-27T07:48:00.223Z,3.50
2023-04-27T07:50:29.299Z,4.27
2023-04-27T07:52:57.273Z,3.33
2023-04-27T07:55:26.094Z,5.03
2023-04-27T07:57:54.721Z,3.60
2023-04-27T08:00:23.460Z,4.10
2023-04-27T08:02:53.536Z,3.83
2023-04-27T08:05:21.948Z,3.80
2023-04-27T08:07:50.029Z,5.40
2023-04-27T08:10:17.376Z,4.00
2023-04-27T08:12:44.596Z,3.53
2023-04-27T08:15:12.144Z,3.60
2023-04-27T08:17:39.704Z,4.70
2023-04-27T08:20:09.216Z,3.93
2023-04-27T08:22:36.511Z,4.70
2023-04-27T08:25:04.211Z,3.80
2023-04-27T08:27:31.473Z,3.80
2023-04-27T08:29:59.011Z,4.30
2023-04-27T08:32:26.628Z,3.60
2023-04-27T08:34:53.897Z,3.97
2023-04-27T08:37:21.128Z,3.70
2023-04-27T08:39:48.868Z,3.57
2023-04-27T08:42:16.304Z,3.43
2023-04-27T08:44:44.958Z,3.70
2023-04-27T08:47:12.745Z,3.60
2023-04-27T08:49:40.072Z,3.73
2023-04-27T08:52:17.547Z,4.37
2023-04-27T08:54:45.087Z,3.43
2023-04-27T08:57:14.938Z,3.37
2023-04-27T08:59:42.679Z,3.47
2023-04-27T09:02:22.421Z,3.13
2023-04-27T09:04:49.800Z,3.60
2023-04-27T09:07:18.417Z,3.10
2023-04-27T09:09:46.030Z,4.10
2023-04-27T09:12:21.760Z,2.97
2023-04-27T09:15:01.639Z,3.50
2023-04-27T09:17:30.428Z,2.57
2023-04-27T09:20:11.450Z,3.10
2023-04-27T09:22:52.131Z,3.10
2023-04-27T09:25:33.543Z,2.90
2023-04-27T09:28:01.821Z,4.93
2023-04-27T09:30:30.099Z,2.80
2023-04-27T09:33:01.726Z,6.30
2023-04-27T09:35:32.716Z,2.47
2023-04-27T09:38:01.114Z,2.80
2023-04-27T09:40:30.158Z,2.83
2023-04-27T09:43:00.952Z,2.53
2023-04-27T09:45:28.665Z,2.63
2023-04-27T09:47:56.207Z,2.80
2023-04-27T09:50:23.644Z,2.37
2023-04-27T09:52:50.973Z,2.70
2023-04-27T09:56:01.792Z,2.60
2023-04-27T09:59:17.992Z,2.80
2023-04-27T10:01:54.939Z,2.50
2023-04-27T10:04:49.908Z,2.87
2023-04-27T10:07:18.067Z,2.40
2023-04-27T10:09:50.908Z,2.47
2023-04-27T10:12:27.926Z,2.27
2023-04-27T10:14:58.677Z,2.23
2023-04-27T10:17:35.547Z,1.90
2023-04-27T10:20:06.431Z,2.17
2023-04-27T10:22:48.166Z,2.83
2023-04-27T10:25:26.243Z,3.07
2023-04-27T10:28:00.145Z,2.40
2023-04-27T10:30:34.405Z,2.50
2023-04-27T10:33:12.185Z,2.67
2023-04-27T10:35:43.081Z,2.63
2023-04-27T10:38:16.792Z,2.50
2023-04-27T10:41:00.443Z,1.83
2023-04-27T10:43:31.637Z,1.90
2023-04-27T10:46:15.671Z,1.87
2023-04-27T10:48:44.651Z,1.80
2023-04-27T10:51:17.386Z,1.80
2023-04-27T10:53:44.985Z,1.60
2023-04-27T10:56:16.475Z,1.80
2023-04-27T10:58:48.829Z,2.90
2023-04-27T11:01:26.975Z,1.50
2023-04-27T11:04:02.708Z,2.60
2023-04-27T11:06:31.687Z,1.70
2023-04-27T11:08:59.712Z,1.30
2023-04-27T11:11:26.894Z,1.40
2023-04-27T11:13:54.974Z,1.70
2023-04-27T11:16:23.407Z,1.23
2023-04-27T11:18:50.884Z,1.50
2023-04-27T11:21:22.443Z,1.40
2023-04-27T11:23:49.943Z,1.77
2023-04-27T11:26:23.305Z,1.70
2023-04-27T11:29:06.077Z,3.33
2023-04-27T11:31:49.149Z,1.50
2023-04-27T11:34:24.079Z,1.30
2023-04-27T11:37:17.413Z,1.60
2023-04-27T11:39:46.370Z,1.30
2023-04-27T11:42:26.470Z,2.30
2023-04-27T11:45:05.623Z,1.40
2023-04-27T11:47:34.791Z,1.43
2023-04-27T11:50:07.181Z,2.50
2023-04-27T11:52:36.724Z,1.57
2023-04-27T11:55:05.419Z,1.23
2023-04-27T11:57:36.303Z,1.33
2023-04-27T12:00:06.063Z,1.50
2023-04-27T12:02:33.444Z,1.30
2023-04-27T12:05:01.138Z,1.10
2023-04-27T12:07:28.960Z,1.00
2023-04-27T12:09:58.368Z,1.13
2023-04-27T12:12:26.811Z,0.90
2023-04-27T12:14:54.643Z,1.30
2023-04-27T12:17:27.841Z,1.17
2023-04-27T12:19:58.418Z,1.17
2023-04-27T12:22:25.779Z,1.70
2023-04-27T12:24:53.339Z,1.10
2023-04-27T12:27:20.875Z,1.57
2023-04-27T12:29:58.451Z,1.10
2023-04-27T12:32:26.206Z,1.23
2023-04-27T12:34:57.845Z,2.17
2023-04-27T12:37:28.075Z,1.50
2023-04-27T12:39:55.399Z,1.30
2023-04-27T12:42:23.426Z,1.20
2023-04-27T12:44:53.454Z,1.20
2023-04-27T12:47:43.142Z,1.43
2023-04-27T12:50:09.891Z,1.33
2023-04-27T12:52:37.639Z,1.20
2023-04-27T12:55:05.474Z,1.30
2023-04-27T12:57:32.657Z,1.40
2023-04-27T13:00:01.803Z,1.43
2023-04-27T13:02:29.921Z,1.97
2023-04-27T13:04:57.329Z,1.90
2023-04-27T13:07:24.848Z,1.30
2023-04-27T13:09:52.013Z,1.40
2023-04-27T13:12:19.301Z,1.30
2023-04-27T13:14:46.576Z,1.40
2023-04-27T13:17:13.827Z,1.63
2023-04-27T13:19:41.087Z,1.40
2023-04-27T13:22:08.294Z,1.87
2023-04-27T13:24:36.123Z,1.60
2023-04-27T13:27:03.877Z,1.40
2023-04-27T13:29:31.534Z,1.77
2023-04-27T13:31:59.097Z,1.10
2023-04-27T13:34:26.336Z,1.73
2023-04-27T13:36:53.665Z,1.60
2023-04-27T13:39:20.855Z,2.10
2023-04-27T13:41:48.376Z,1.20
2023-04-27T13:44:15.862Z,1.43
2023-04-27T13:46:43.360Z,1.90
2023-04-27T13:49:10.711Z,1.73
2023-04-27T13:51:37.937Z,1.70
2023-04-27T13:54:05.269Z,3.10
2023-04-27T13:56:32.560Z,2.00
2023-04-27T13:58:59.822Z,3.50
2023-04-27T14:01:28.395Z,2.13
2023-04-27T14:03:55.976Z,1.80
2023-04-27T14:06:23.406Z,1.80
2023-04-27T14:08:50.752Z,2.37
2023-04-27T14:11:17.978Z,1.80
2023-04-27T14:13:45.365Z,2.10
2023-04-27T14:16:12.569Z,2.10
2023-04-27T14:18:39.978Z,1.90
2023-04-27T14:21:07.498Z,1.90
2023-04-27T14:23:35.074Z,1.77
2023-04-27T14:26:02.313Z,2.30
2023-04-27T14:28:29.526Z,2.20
2023-04-27T14:30:56.760Z,1.97
2023-04-27T14:33:24.097Z,3.10
2023-04-27T14:35:51.315Z,1.90
2023-04-27T14:38:18.529Z,2.90
2023-04-27T14:40:45.778Z,3.70
2023-04-27T14:43:13.169Z,3.63
2023-04-27T14:45:50.816Z,1.77
2023-04-27T14:48:19.995Z,3.57
2023-04-27T14:50:47.321Z,2.40
2023-04-27T14:53:15.217Z,2.20
2023-04-27T14:55:42.401Z,2.20
2023-04-27T14:58:09.628Z,1.87
2023-04-27T15:00:36.871Z,4.97
2023-04-27T15:03:04.596Z,4.13
2023-04-27T15:05:31.981Z,2.67
2023-04-27T15:07:59.314Z,2.60
2023-04-27T15:10:26.497Z,2.03
2023-04-27T15:12:53.737Z,2.20
2023-04-27T15:15:20.959Z,2.63
2023-04-27T15:17:48.324Z,2.17
2023-04-27T15:20:15.832Z,2.50
2023-04-27T15:22:43.145Z,2.40
2023-04-27T15:25:10.545Z,1.97
2023-04-27T15:27:38.422Z,2.47
2023-04-27T15:30:06.747Z,2.10
2023-04-27T15:32:34.465Z,2.20
2023-04-27T15:35:01.748Z,2.37
2023-04-27T15:37:29.647Z,2.40
2023-04-27T15:39:57.239Z,3.00
2023-04-27T15:42:26.301Z,2.17
2023-04-27T15:44:53.746Z,2.43
2023-04-27T15:47:20.981Z,2.40
2023-04-27T15:49:57.090Z,2.50
2023-04-27T15:52:26.273Z,2.60
2023-04-27T15:54:53.656Z,2.50
2023-04-27T15:57:20.910Z,2.70
2023-04-27T15:59:48.079Z,2.63
2023-04-27T16:02:15.531Z,2.20
2023-04-27T16:04:42.874Z,2.20
2023-04-27T16:07:10.117Z,2.27
2023-04-27T16:09:37.748Z,2.37
2023-04-27T16:12:05.455Z,2.20
2023-04-27T16:14:32.850Z,5.50
2023-04-27T16:17:02.660Z,2.73
2023-04-27T16:19:30.335Z,2.63
2023-04-27T16:21:57.603Z,3.00
2023-04-27T16:24:25.772Z,2.70
2023-04-27T16:26:53.214Z,3.03
2023-04-27T16:29:20.490Z,2.53
2023-04-27T16:31:50.538Z,2.40
2023-04-27T16:34:17.834Z,2.30
2023-04-27T16:36:45.162Z,3.00
2023-04-27T16:39:12.592Z,3.80
2023-04-27T16:41:40.189Z,3.57
2023-04-27T16:44:07.370Z,3.27
2023-04-27T16:46:34.730Z,3.00
2023-04-27T16:49:02.018Z,2.90
2023-04-27T16:51:29.356Z,2.50
2023-04-27T16:53:58.332Z,2.70
2023-04-27T16:56:31.491Z,2.63
2023-04-27T16:58:59.024Z,2.40
2023-04-27T17:01:26.439Z,2.70
2023-04-27T17:03:53.944Z,2.80
2023-04-27T17:06:24.184Z,2.83
2023-04-27T17:08:52.588Z,2.27
2023-04-27T17:11:19.876Z,2.57
2023-04-27T17:13:49.134Z,2.33
2023-04-27T17:16:17.830Z,2.87
2023-04-27T17:18:46.986Z,2.57
2023-04-27T17:21:14.793Z,2.33
2023-04-27T17:23:42.169Z,2.70
2023-04-27T17:26:09.537Z,2.73
2023-04-27T17:28:36.687Z,2.67
2023-04-27T17:31:03.920Z,2.87
2023-04-27T17:33:31.600Z,2.77
2023-04-27T17:35:59.219Z,2.90
2023-04-27T17:38:27.214Z,2.80
2023-04-27T17:40:54.533Z,2.60
2023-04-27T17:43:21.763Z,2.67
2023-04-27T17:45:49.029Z,2.87
2023-04-27T17:48:16.348Z,2.60
2023-04-27T17:50:44.009Z,2.73
2023-04-27T17:53:11.346Z,2.90
2023-04-27T17:55:38.592Z,3.07
2023-04-27T17:58:05.876Z,2.67
2023-04-27T18:00:33.253Z,2.60
2023-04-27T18:03:00.795Z,3.10
2023-04-27T18:05:28.357Z,2.80
2023-04-27T18:07:55.801Z,2.90
2023-04-27T18:10:23.238Z,2.77
2023-04-27T18:12:50.492Z,2.80
2023-04-27T18:15:17.693Z,3.00
2023-04-27T18:17:45.006Z,3.10
2023-04-27T18:20:12.637Z,3.07
2023-04-27T18:22:40.610Z,3.50
2023-04-27T18:25:09.911Z,3.17
2023-04-27T18:27:37.571Z,3.23
2023-04-27T18:30:06.146Z,3.33
2023-04-27T18:32:34.806Z,3.13
2023-04-27T18:35:02.656Z,3.00
2023-04-27T18:37:30.313Z,3.50
2023-04-27T18:39:57.991Z,3.43
2023-04-27T18:42:25.531Z,3.27
2023-04-27T18:44:53.642Z,2.90
2023-04-27T18:47:21.261Z,3.37
2023-04-27T18:49:49.036Z,3.67
2023-04-27T18:52:16.215Z,3.80
2023-04-27T18:54:43.542Z,3.30
2023-04-27T18:57:11.013Z,3.10
2023-04-27T18:59:38.946Z,3.27
2023-04-27T19:02:07.849Z,3.10
2023-04-27T19:04:35.966Z,3.27
2023-04-27T19:07:03.691Z,3.57
2023-04-27T19:09:31.039Z,2.90
2023-04-27T19:12:02.783Z,3.63
2023-04-27T19:14:31.916Z,4.00
2023-04-27T19:16:59.236Z,3.40
2023-04-27T19:19:26.510Z,3.47
2023-04-27T19:21:54.446Z,4.20
2023-04-27T19:24:21.742Z,4.17
2023-04-27T19:26:49.024Z,3.70
2023-04-27T19:29:16.977Z,3.60
2023-04-27T19:31:44.632Z,3.77
2023-04-27T19:34:12.162Z,3.47
2023-04-27T19:36:39.777Z,4.90
2023-04-27T19:39:06.940Z,4.90
2023-04-27T19:41:34.373Z,3.50
2023-04-27T19:44:01.530Z,3.83
2023-04-27T19:46:28.983Z,3.77
2023-04-27T19:48:56.226Z,3.57
2023-04-27T19:51:24.126Z,3.57
2023-04-27T19:53:51.564Z,3.57
2023-04-27T19:56:19.017Z,3.40
2023-04-27T19:58:46.249Z,3.90
2023-04-27T20:01:13.640Z,3.27
2023-04-27T20:03:40.990Z,3.50
2023-04-27T20:06:08.718Z,3.40
2023-04-27T20:08:36.125Z,3.80
2023-04-27T20:11:03.389Z,3.63
2023-04-27T20:13:30.583Z,3.40
2023-04-27T20:15:57.811Z,3.40
2023-04-27T20:18:25.145Z,3.37
2023-04-27T20:20:52.304Z,3.20
2023-04-27T20:23:19.525Z,3.60
2023-04-27T20:25:46.727Z,3.27
2023-04-27T20:28:14.005Z,3.80
2023-04-27T20:30:41.417Z,3.47
2023-04-27T20:33:08.761Z,3.40
2023-04-27T20:35:36.017Z,3.37
2023-04-27T20:38:03.456Z,3.60
2023-04-27T20:40:30.667Z,3.70
2023-04-27T20:42:58.207Z,3.57
2023-04-27T20:45:25.524Z,3.43
2023-04-27T20:47:53.018Z,3.57
2023-04-27T20:50:20.788Z,3.90
2023-04-27T20:52:48.422Z,3.70
2023-04-27T20:55:16.256Z,3.67
2023-04-27T20:57:44.014Z,3.77
2023-04-27T21:00:12.096Z,3.90
2023-04-27T21:02:39.832Z,3.20
2023-04-27T21:05:07.602Z,3.43
2023-04-27T21:07:35.419Z,3.50
2023-04-27T21:10:03.146Z,4.30
2023-04-27T21:12:30.700Z,6.80
2023-04-27T21:14:58.331Z,4.73
2023-04-27T21:17:25.914Z,3.13
2023-04-27T21:19:53.632Z,4.17
2023-04-27T21:22:21.186Z,4.70
2023-04-27T21:24:48.851Z,4.60
2023-04-27T21:27:16.374Z,4.20
2023-04-27T21:29:44.077Z,3.47
2023-04-27T21:32:12.372Z,3.23
2023-04-27T21:34:39.585Z,3.30
2023-04-27T21:37:06.784Z,3.67
2023-04-27T21:39:33.977Z,3.47
2023-04-27T21:42:01.208Z,3.00
2023-04-27T21:44:28.424Z,3.83
2023-04-27T21:46:55.852Z,4.07
2023-04-27T21:49:23.196Z,3.70
2023-04-27T21:51:50.609Z,4.30
2023-04-27T21:54:17.935Z,3.70
2023-04-27T21:56:45.180Z,4.07
2023-04-27T21:59:12.673Z,4.27
2023-04-27T22:01:39.916Z,3.97
2023-04-27T22:04:07.397Z,4.07
2023-04-27T22:06:34.700Z,3.60
2023-04-27T22:09:02.309Z,3.80
2023-04-27T22:11:29.487Z,3.60
2023-04-27T22:13:56.763Z,3.30
2023-04-27T22:16:24.055Z,3.67
2023-04-27T22:18:51.268Z,3.60
2023-04-27T22:21:18.638Z,3.87
2023-04-27T22:23:47.696Z,4.20
2023-04-27T22:26:15.116Z,5.73
2023-04-27T22:28:42.340Z,6.10
2023-04-27T22:31:09.594Z,4.40
2023-04-27T22:33:37.023Z,5.50
2023-04-27T22:36:04.561Z,4.30
2023-04-27T22:38:32.165Z,4.33
2023-04-27T22:40:59.395Z,4.60
2023-04-27T22:43:26.663Z,5.40
2023-04-27T22:45:53.876Z,5.20
2023-04-27T22:48:21.092Z,4.90
2023-04-27T22:50:48.351Z,4.80
2023-04-27T22:53:15.682Z,4.50
2023-04-27T22:55:43.186Z,4.40
2023-04-27T22:58:10.402Z,4.47
2023-04-27T23:00:37.635Z,4.80
2023-04-27T23:03:05.084Z,4.53
2023-04-27T23:05:32.932Z,4.80
2023-04-27T23:08:00.227Z,4.80
2023-04-27T23:10:27.425Z,4.47
2023-04-27T23:12:54.594Z,4.30
2023-04-27T23:15:21.775Z,4.63
2023-04-27T23:17:49.035Z,4.57
2023-04-27T23:20:27.496Z,4.23
2023-04-27T23:22:55.817Z,4.70
2023-04-27T23:25:23.330Z,3.97
2023-04-27T23:27:52.251Z,4.30
2023-04-27T23:30:21.471Z,4.60
2023-04-27T23:32:48.893Z,4.50
2023-04-27T23:35:16.364Z,4.00
2023-04-27T23:37:43.789Z,3.80
2023-04-27T23:40:11.498Z,4.20
2023-04-27T23:42:39.142Z,4.50
2023-04-27T23:45:07.129Z,4.37
2023-04-27T23:47:34.710Z,4.27
2023-04-27T23:50:02.374Z,3.90
2023-04-27T23:52:30.077Z,3.97
2023-04-27T23:55:00.679Z,4.40
2023-04-27T23:57:28.208Z,3.97
2023-04-27T23:59:55.696Z,4.10
